Time,TemperatureF,DewpointF,PressureIn,WindDirection,WindDirectionDegrees,WindSpeedMPH,WindSpeedGustMPH,Humidity,HourlyPrecipIn,Conditions,Clouds,dailyrainin,SoftwareType,DateUTC
2013-07-05 00:01:00,63.5,62.4,30.06,North,0,0.0,0.0,96,0.00,,,0.00,WUHU216HW,2013-07-05 04:01:00,
2013-07-05 00:02:00,63.5,62.4,30.06,North,0,0.0,0.0,96,0.00,,,0.00,WUHU216HW,2013-07-05 04:02:00,
2013-07-05 00:03:00,63.5,62.4,30.06,North,0,0.0,0.0,96,0.00,,,0.00,WUHU216HW,2013-07-05 04:03:00,
2013-07-05 00:06:00,63.4,62.3,30.06,North,0,0.0,0.0,96,0.00,,,0.00,WUHU216HW,2013-07-05 04:06:00,
2013-07-05 00:11:00,63.4,62.3,30.06,North,0,0.0,0.0,96,0.00,,,0.00,WUHU216HW,2013-07-05 04:11:00,
2013-07-05 00:15:00,63.4,62.3,30.06,North,0,0.0,0.0,96,0.00,,,0.00,WUHU216HW,2013-07-05 04:15:00,
2013-07-05 00:20:00,63.4,62.3,30.06,SSW,203,0.6,0.7,96,0.00,,,0.00,WUHU216HW,2013-07-05 04:20:00,
2013-07-05 00:25:00,63.4,62.3,30.06,SSW,203,0.6,0.7,96,0.00,,,0.00,WUHU216HW,2013-07-05 04:25:00,
2013-07-05 00:30:00,63.4,62.6,30.07,North,0,0.0,0.0,97,0.00,,,0.00,WUHU216HW,2013-07-05 04:30:00,
2013-07-05 00:35:00,63.4,62.6,30.06,North,0,0.0,0.0,97,0.00,,,0.00,WUHU216HW,2013-07-05 04:35:00,
2013-07-05 00:40:00,63.4,62.6,30.06,North,0,0.0,0.0,97,0.00,,,0.00,WUHU216HW,2013-07-05 04:40:00,
2013-07-05 00:45:00,63.4,62.6,30.07,North,0,0.0,0.0,97,0.00,,,0.00,WUHU216HW,2013-07-05 04:45:00,
2013-07-05 00:50:00,63.4,62.6,30.07,North,0,0.0,0.0,97,0.00,,,0.00,WUHU216HW,2013-07-05 04:50:00,
2013-07-05 00:55:00,63.5,62.7,30.06,North,0,0.0,0.0,97,0.00,,,0.00,WUHU216HW,2013-07-05 04:55:00,
2013-07-05 01:00:00,63.5,62.7,30.07,North,0,0.0,0.0,97,0.00,,,0.00,WUHU216HW,2013-07-05 05:00:00,
2013-07-05 01:05:00,63.5,62.7,30.07,North,0,0.0,0.0,97,0.00,,,0.00,WUHU216HW,2013-07-05 05:05:00,
2013-07-05 01:10:00,63.7,62.9,30.06,ESE,113,0.6,0.7,97,0.00,,,0.00,WUHU216HW,2013-07-05 05:10:00,
2013-07-05 01:15:00,63.7,63.2,30.06,ESE,113,0.3,0.4,99,0.00,,,0.00,WUHU216HW,2013-07-05 05:15:00,
2013-07-05 01:20:00,63.7,62.9,30.06,North,0,0.0,0.0,97,0.00,,,0.00,WUHU216HW,2013-07-05 05:20:00,
2013-07-05 01:25:00,63.7,62.9,30.06,ESE,113,0.1,0.2,97,0.00,,,0.00,WUHU216HW,2013-07-05 05:25:00,
2013-07-05 01:30:00,63.7,63.2,30.07,North,0,0.0,0.0,99,0.00,,,0.00,WUHU216HW,2013-07-05 05:30:00,
2013-07-05 01:35:00,63.7,63.2,30.06,North,0,0.0,0.0,99,0.00,,,0.00,WUHU216HW,2013-07-05 05:35:00,
2013-07-05 01:40:00,63.7,63.2,30.06,North,0,0.0,0.0,99,0.00,,,0.00,WUHU216HW,2013-07-05 05:40:00,
2013-07-05 01:46:00,63.7,63.2,30.06,North,0,0.0,0.0,99,0.00,,,0.00,WUHU216HW,2013-07-05 05:46:00,
2013-07-05 01:51:00,63.7,63.2,30.06,ESE,113,0.6,0.9,99,0.00,,,0.00,WUHU216HW,2013-07-05 05:51:00,
2013-07-05 01:56:00,63.7,63.2,30.05,North,0,0.0,0.0,99,0.00,,,0.00,WUHU216HW,2013-07-05 05:56:00,
2013-07-05 02:01:00,63.7,63.2,30.05,North,0,0.0,0.0,99,0.00,,,0.00,WUHU216HW,2013-07-05 06:01:00,
2013-07-05 02:06:00,63.7,63.2,30.05,North,0,0.0,0.0,99,0.00,,,0.00,WUHU216HW,2013-07-05 06:06:00,
2013-07-05 02:11:00,63.5,63.0,30.05,North,0,0.0,0.0,99,0.00,,,0.00,WUHU216HW,2013-07-05 06:11:00,
2013-07-05 02:16:00,63.5,63.0,30.05,North,0,0.0,0.0,99,0.00,,,0.00,WUHU216HW,2013-07-05 06:16:00,
2013-07-05 02:21:00,63.5,63.0,30.05,North,0,0.0,0.0,99,0.00,,,0.00,WUHU216HW,2013-07-05 06:21:00,
2013-07-05 02:26:00,63.5,63.0,30.04,North,0,0.0,0.0,99,0.00,,,0.00,WUHU216HW,2013-07-05 06:26:00,
2013-07-05 02:31:00,63.5,63.0,30.04,North,0,0.0,0.0,99,0.00,,,0.00,WUHU216HW,2013-07-05 06:31:00,
2013-07-05 02:36:00,63.5,63.0,30.05,North,0,0.0,0.0,99,0.00,,,0.00,WUHU216HW,2013-07-05 06:36:00,
2013-07-05 02:41:00,63.7,63.2,30.04,North,0,0.0,0.0,99,0.00,,,0.00,WUHU216HW,2013-07-05 06:41:00,
2013-07-05 02:46:00,63.7,63.2,30.05,North,0,0.0,0.0,99,0.00,,,0.00,WUHU216HW,2013-07-05 06:46:00,
2013-07-05 02:51:00,63.5,63.0,30.05,North,0,0.0,0.0,99,0.00,,,0.00,WUHU216HW,2013-07-05 06:51:00,
2013-07-05 02:56:00,63.7,63.2,30.05,North,0,0.0,0.0,99,0.00,,,0.00,WUHU216HW,2013-07-05 06:56:00,
2013-07-05 03:01:00,63.7,63.2,30.04,North,0,0.0,0.0,99,0.00,,,0.00,WUHU216HW,2013-07-05 07:01:00,
2013-07-05 03:06:00,63.7,63.2,30.05,North,0,0.0,0.0,99,0.00,,,0.00,WUHU216HW,2013-07-05 07:06:00,
2013-07-05 03:11:00,63.7,63.2,30.05,North,0,0.0,0.0,99,0.00,,,0.00,WUHU216HW,2013-07-05 07:11:00,
2013-07-05 03:16:00,63.7,63.2,30.05,North,0,0.0,0.0,99,0.00,,,0.00,WUHU216HW,2013-07-05 07:16:00,
2013-07-05 03:21:00,63.7,63.2,30.04,North,0,0.0,0.0,99,0.00,,,0.00,WUHU216HW,2013-07-05 07:21:00,
2013-07-05 03:26:00,63.7,63.2,30.04,North,0,0.0,0.0,99,0.00,,,0.00,WUHU216HW,2013-07-05 07:26:00,
2013-07-05 03:31:00,63.7,63.2,30.04,North,0,0.0,0.0,99,0.00,,,0.00,WUHU216HW,2013-07-05 07:31:00,
2013-07-05 03:36:00,63.7,63.2,30.04,North,0,0.0,0.0,99,0.00,,,0.00,WUHU216HW,2013-07-05 07:36:00,
2013-07-05 03:41:00,63.7,63.2,30.04,North,0,0.0,0.0,99,0.00,,,0.00,WUHU216HW,2013-07-05 07:41:00,
2013-07-05 03:46:00,63.7,63.2,30.04,North,0,0.0,0.0,99,0.00,,,0.00,WUHU216HW,2013-07-05 07:46:00,
2013-07-05 03:51:00,63.7,63.2,30.04,North,0,0.0,0.0,99,0.00,,,0.00,WUHU216HW,2013-07-05 07:51:00,
2013-07-05 03:56:00,63.7,63.2,30.04,North,0,0.0,0.0,99,0.00,,,0.00,WUHU216HW,2013-07-05 07:56:00,
2013-07-05 04:01:00,63.7,63.2,30.03,North,0,0.0,0.0,99,0.00,,,0.00,WUHU216HW,2013-07-05 08:01:00,
2013-07-05 04:06:00,63.7,63.6,30.03,North,0,0.0,0.0,100,0.00,,,0.00,WUHU216HW,2013-07-05 08:06:00,
2013-07-05 04:11:00,63.7,63.2,30.03,North,0,0.0,0.0,99,0.00,,,0.00,WUHU216HW,2013-07-05 08:11:00,
2013-07-05 04:16:00,63.7,63.6,30.04,North,0,0.0,0.0,100,0.00,,,0.00,WUHU216HW,2013-07-05 08:16:00,
2013-07-05 04:21:00,63.7,63.6,30.04,North,0,0.0,0.0,100,0.00,,,0.00,WUHU216HW,2013-07-05 08:21:00,
2013-07-05 04:26:00,63.7,63.6,30.04,North,0,0.0,0.0,100,0.00,,,0.00,WUHU216HW,2013-07-05 08:26:00,
2013-07-05 04:31:00,63.7,63.6,30.04,North,0,0.0,0.0,100,0.00,,,0.00,WUHU216HW,2013-07-05 08:31:00,
2013-07-05 04:37:00,63.7,63.6,30.04,North,0,0.0,0.0,100,0.00,,,0.00,WUHU216HW,2013-07-05 08:37:00,
2013-07-05 04:42:00,63.7,63.6,30.04,North,0,0.0,0.0,100,0.00,,,0.00,WUHU216HW,2013-07-05 08:42:00,
2013-07-05 04:47:00,63.7,63.6,30.04,North,0,0.0,0.0,100,0.00,,,0.00,WUHU216HW,2013-07-05 08:47:00,
2013-07-05 04:52:00,63.7,63.6,30.04,North,0,0.0,0.0,100,0.00,,,0.00,WUHU216HW,2013-07-05 08:52:00,
2013-07-05 04:57:00,63.7,63.6,30.05,North,0,0.0,0.0,100,0.00,,,0.00,WUHU216HW,2013-07-05 08:57:00,
2013-07-05 05:02:00,63.7,63.6,30.04,North,0,0.0,0.0,100,0.00,,,0.00,WUHU216HW,2013-07-05 09:02:00,
2013-07-05 05:07:00,63.7,63.6,30.04,SE,135,0.9,1.1,100,0.00,,,0.00,WUHU216HW,2013-07-05 09:07:00,
2013-07-05 05:12:00,63.7,63.6,30.04,North,0,0.1,0.4,100,0.00,,,0.00,WUHU216HW,2013-07-05 09:12:00,
2013-07-05 05:18:00,63.7,63.6,30.04,North,0,0.0,0.0,100,0.00,,,0.00,WUHU216HW,2013-07-05 09:18:00,
2013-07-05 05:24:00,63.5,63.4,30.03,North,0,0.0,0.0,100,0.00,,,0.00,WUHU216HW,2013-07-05 09:24:00,
2013-07-05 05:29:00,63.5,63.4,30.04,North,0,0.1,0.4,100,0.00,,,0.00,WUHU216HW,2013-07-05 09:29:00,
2013-07-05 05:34:00,63.7,63.6,30.04,North,0,0.0,0.0,100,0.00,,,0.00,WUHU216HW,2013-07-05 09:34:00,
2013-07-05 05:39:00,63.5,63.4,30.04,North,0,0.2,0.4,100,0.00,,,0.00,WUHU216HW,2013-07-05 09:39:00,
2013-07-05 05:45:00,63.4,63.3,30.05,North,0,0.0,0.0,100,0.00,,,0.00,WUHU216HW,2013-07-05 09:45:00,
2013-07-05 05:50:00,63.4,63.3,30.05,North,0,0.0,0.0,100,0.00,,,0.00,WUHU216HW,2013-07-05 09:50:00,
2013-07-05 05:55:00,63.2,63.1,30.05,North,0,0.0,0.0,100,0.00,,,0.00,WUHU216HW,2013-07-05 09:55:00,
2013-07-05 06:01:00,63.2,63.1,30.05,North,0,0.0,0.0,100,0.00,,,0.00,WUHU216HW,2013-07-05 10:01:00,
2013-07-05 06:06:00,63.4,63.3,30.05,North,0,0.0,0.0,100,0.00,,,0.00,WUHU216HW,2013-07-05 10:06:00,
2013-07-05 06:11:00,63.2,63.1,30.05,North,0,0.0,0.0,100,0.00,,,0.00,WUHU216HW,2013-07-05 10:11:00,
2013-07-05 06:17:00,63.2,63.1,30.05,North,0,0.2,0.4,100,0.00,,,0.00,WUHU216HW,2013-07-05 10:17:00,
2013-07-05 06:22:00,63.4,63.3,30.05,North,0,0.0,0.0,100,0.00,,,0.00,WUHU216HW,2013-07-05 10:22:00,
2013-07-05 06:27:00,63.4,63.3,30.05,North,0,0.0,0.0,100,0.00,,,0.00,WUHU216HW,2013-07-05 10:27:00,
2013-07-05 06:32:00,63.4,63.3,30.05,North,0,0.0,0.0,100,0.00,,,0.00,WUHU216HW,2013-07-05 10:32:00,
2013-07-05 06:38:00,63.4,63.3,30.05,North,0,0.0,0.0,100,0.00,,,0.00,WUHU216HW,2013-07-05 10:38:00,
2013-07-05 06:43:00,63.4,63.3,30.06,North,0,0.0,0.0,100,0.00,,,0.00,WUHU216HW,2013-07-05 10:43:00,
2013-07-05 06:48:00,63.4,63.3,30.06,North,0,0.0,0.0,100,0.00,,,0.00,WUHU216HW,2013-07-05 10:48:00,
2013-07-05 06:54:00,63.5,63.4,30.05,NE,39,0.6,1.1,100,0.00,,,0.00,WUHU216HW,2013-07-05 10:54:00,
2013-07-05 06:59:00,63.7,63.6,30.05,North,0,0.0,0.0,100,0.00,,,0.00,WUHU216HW,2013-07-05 10:59:00,
2013-07-05 07:04:00,63.7,63.6,30.05,North,0,0.0,0.0,100,0.00,,,0.00,WUHU216HW,2013-07-05 11:04:00,
2013-07-05 07:09:00,63.7,63.6,30.05,North,0,0.0,0.0,100,0.00,,,0.00,WUHU216HW,2013-07-05 11:09:00,
2013-07-05 07:14:00,63.9,63.8,30.06,North,0,0.0,0.0,100,0.00,,,0.00,WUHU216HW,2013-07-05 11:14:00,
2013-07-05 07:19:00,64.1,64.0,30.05,North,0,0.0,0.0,100,0.00,,,0.00,WUHU216HW,2013-07-05 11:19:00,
2013-07-05 07:25:00,64.4,64.3,30.05,North,0,0.0,0.0,100,0.00,,,0.00,WUHU216HW,2013-07-05 11:25:00,
2013-07-05 07:30:00,64.6,64.5,30.05,North,0,0.0,0.0,100,0.00,,,0.00,WUHU216HW,2013-07-05 11:30:00,
2013-07-05 07:35:00,65.2,65.1,30.05,North,0,0.0,0.0,100,0.00,,,0.00,WUHU216HW,2013-07-05 11:35:00,
2013-07-05 07:40:00,65.5,65.5,30.05,East,90,0.7,0.7,100,0.00,,,0.00,WUHU216HW,2013-07-05 11:40:00,
2013-07-05 07:46:00,65.9,65.9,30.05,North,0,0.0,0.0,100,0.00,,,0.00,WUHU216HW,2013-07-05 11:46:00,
2013-07-05 07:51:00,66.2,66.2,30.05,North,0,0.0,0.0,100,0.00,,,0.00,WUHU216HW,2013-07-05 11:51:00,
2013-07-05 07:57:00,66.6,66.6,30.05,North,0,0.0,0.0,100,0.00,,,0.00,WUHU216HW,2013-07-05 11:57:00,
2013-07-05 08:02:00,67.1,67.1,30.05,North,0,0.0,0.0,100,0.00,,,0.00,WUHU216HW,2013-07-05 12:02:00,
2013-07-05 08:08:00,67.7,67.6,30.05,North,0,0.0,0.0,100,0.00,,,0.00,WUHU216HW,2013-07-05 12:08:00,
2013-07-05 08:13:00,68.2,68.1,30.05,North,0,0.0,0.0,100,0.00,,,0.00,WUHU216HW,2013-07-05 12:13:00,
2013-07-05 08:18:00,69.5,69.0,30.06,North,0,0.0,0.0,99,0.00,,,0.00,WUHU216HW,2013-07-05 12:18:00,
2013-07-05 08:24:00,70.6,69.8,30.06,NE,45,0.1,0.9,97,0.00,,,0.00,WUHU216HW,2013-07-05 12:24:00,
2013-07-05 08:29:00,71.1,69.9,30.06,ENE,65,0.5,0.7,96,0.00,,,0.00,WUHU216HW,2013-07-05 12:29:00,
2013-07-05 08:34:00,72.0,70.5,30.06,NNE,19,1.4,1.8,95,0.00,,,0.00,WUHU216HW,2013-07-05 12:34:00,
2013-07-05 08:39:00,72.2,70.3,30.06,East,90,0.5,0.9,94,0.00,,,0.00,WUHU216HW,2013-07-05 12:39:00,
2013-07-05 08:45:00,72.7,70.5,30.06,NNE,23,1.7,2.0,93,0.00,,,0.00,WUHU216HW,2013-07-05 12:45:00,
2013-07-05 08:50:00,73.4,71.1,30.06,East,99,1.0,1.1,93,0.00,,,0.00,WUHU216HW,2013-07-05 12:50:00,
2013-07-05 08:56:00,73.4,70.8,30.06,East,90,0.6,0.7,92,0.00,,,0.00,WUHU216HW,2013-07-05 12:56:00,
2013-07-05 09:02:00,73.6,71.0,30.07,East,90,0.4,0.4,92,0.00,,,0.00,WUHU216HW,2013-07-05 13:02:00,
2013-07-05 09:07:00,73.6,71.0,30.07,North,0,0.0,0.0,92,0.00,,,0.00,WUHU216HW,2013-07-05 13:07:00,
2013-07-05 09:13:00,74.3,71.3,30.07,East,94,1.4,1.8,91,0.00,,,0.00,WUHU216HW,2013-07-05 13:13:00,
2013-07-05 09:18:00,74.5,71.1,30.07,ESE,113,0.3,0.4,89,0.00,,,0.00,WUHU216HW,2013-07-05 13:18:00,
2013-07-05 09:24:00,74.2,70.5,30.07,North,0,0.0,0.0,88,0.00,,,0.00,WUHU216HW,2013-07-05 13:24:00,
2013-07-05 09:29:00,74.7,71.0,30.07,ESE,113,1.8,2.5,88,0.00,,,0.00,WUHU216HW,2013-07-05 13:29:00,
2013-07-05 09:35:00,75.4,71.3,30.07,ESE,113,0.5,0.9,87,0.00,,,0.00,WUHU216HW,2013-07-05 13:35:00,
2013-07-05 09:40:00,75.8,71.3,30.07,ESE,113,0.7,1.1,86,0.00,,,0.00,WUHU216HW,2013-07-05 13:40:00,
2013-07-05 09:45:00,76.3,71.8,30.07,ESE,113,0.4,0.9,86,0.00,,,0.00,WUHU216HW,2013-07-05 13:45:00,
2013-07-05 09:50:00,77.2,72.3,30.07,ENE,75,1.1,1.6,85,0.00,,,0.00,WUHU216HW,2013-07-05 13:50:00,
2013-07-05 09:56:00,77.8,72.1,30.07,North,0,0.0,0.0,82,0.00,,,0.00,WUHU216HW,2013-07-05 13:56:00,
2013-07-05 10:02:00,78.3,72.6,30.07,ESE,113,0.6,1.1,82,0.00,,,0.00,WUHU216HW,2013-07-05 14:02:00,
2013-07-05 10:07:00,78.8,72.3,30.07,North,0,0.2,0.9,80,0.00,,,0.00,WUHU216HW,2013-07-05 14:07:00,
2013-07-05 10:12:00,78.8,72.3,30.08,ESE,113,1.1,1.3,80,0.00,,,0.00,WUHU216HW,2013-07-05 14:12:00,
2013-07-05 10:17:00,79.2,71.8,30.08,East,98,2.5,3.4,78,0.00,,,0.00,WUHU216HW,2013-07-05 14:17:00,
2013-07-05 10:23:00,79.4,72.0,30.08,NNE,13,0.2,0.2,78,0.00,,,0.00,WUHU216HW,2013-07-05 14:23:00,
2013-07-05 10:28:00,79.2,71.4,30.09,ESE,113,0.9,1.1,77,0.00,,,0.00,WUHU216HW,2013-07-05 14:28:00,
2013-07-05 10:33:00,78.8,71.4,30.08,SE,135,0.0,0.2,78,0.00,,,0.00,WUHU216HW,2013-07-05 14:33:00,
2013-07-05 10:38:00,78.8,71.0,30.08,ESE,113,0.9,1.3,77,0.00,,,0.00,WUHU216HW,2013-07-05 14:38:00,
2013-07-05 10:43:00,79.0,70.8,30.08,ESE,113,0.2,0.7,76,0.00,,,0.00,WUHU216HW,2013-07-05 14:43:00,
2013-07-05 10:48:00,79.7,72.3,30.08,SE,142,0.7,0.9,78,0.00,,,0.00,WUHU216HW,2013-07-05 14:48:00,
2013-07-05 10:53:00,80.3,72.0,30.08,North,9,2.6,4.5,76,0.00,,,0.00,WUHU216HW,2013-07-05 14:53:00,
2013-07-05 10:59:00,80.8,71.6,30.08,ENE,68,1.5,2.0,73,0.00,,,0.00,WUHU216HW,2013-07-05 14:59:00,
2013-07-05 11:04:00,80.8,71.2,30.08,North,7,1.8,2.5,72,0.00,,,0.00,WUHU216HW,2013-07-05 15:04:00,
2013-07-05 11:10:00,81.4,72.7,30.08,West,264,0.6,2.0,74,0.00,,,0.00,WUHU216HW,2013-07-05 15:10:00,
2013-07-05 11:15:00,81.9,72.7,30.08,North,6,2.1,3.8,73,0.00,,,0.00,WUHU216HW,2013-07-05 15:15:00,
2013-07-05 11:21:00,82.1,72.9,30.08,WSW,256,0.9,1.8,73,0.00,,,0.00,WUHU216HW,2013-07-05 15:21:00,
2013-07-05 11:26:00,82.8,73.1,30.08,NW,305,2.1,2.5,72,0.00,,,0.00,WUHU216HW,2013-07-05 15:26:00,
2013-07-05 11:31:00,83.2,74.0,30.08,South,188,1.3,2.5,73,0.00,,,0.00,WUHU216HW,2013-07-05 15:31:00,
2013-07-05 11:36:00,83.7,74.9,30.08,SW,219,3.0,3.6,74,0.00,,,0.00,WUHU216HW,2013-07-05 15:36:00,
2013-07-05 11:41:00,84.2,75.4,30.08,SSW,211,1.3,2.7,74,0.00,,,0.00,WUHU216HW,2013-07-05 15:41:00,
2013-07-05 11:46:00,84.6,75.3,30.08,East,99,1.6,2.9,73,0.00,,,0.00,WUHU216HW,2013-07-05 15:46:00,
2013-07-05 11:51:00,83.9,73.2,30.08,SW,220,1.2,1.3,70,0.00,,,0.00,WUHU216HW,2013-07-05 15:51:00,
2013-07-05 11:56:00,83.9,73.2,30.08,East,95,2.5,4.3,70,0.00,,,0.00,WUHU216HW,2013-07-05 15:56:00,
2013-07-05 12:01:00,83.5,71.9,30.08,ESE,117,2.3,2.5,68,0.00,,,0.00,WUHU216HW,2013-07-05 16:01:00,
2013-07-05 12:06:00,82.8,69.2,30.08,North,354,1.8,2.5,63,0.00,,,0.00,WUHU216HW,2013-07-05 16:06:00,
2013-07-05 12:11:00,82.8,71.2,30.08,East,95,3.8,4.0,68,0.00,,,0.00,WUHU216HW,2013-07-05 16:11:00,
2013-07-05 12:16:00,83.0,70.4,30.08,East,99,2.1,3.1,65,0.00,,,0.00,WUHU216HW,2013-07-05 16:16:00,
2013-07-05 12:21:00,83.2,70.6,30.07,NNW,341,1.0,1.1,65,0.00,,,0.00,WUHU216HW,2013-07-05 16:21:00,
2013-07-05 12:26:00,83.0,70.4,30.07,ESE,113,0.9,1.6,65,0.00,,,0.00,WUHU216HW,2013-07-05 16:26:00,
2013-07-05 12:32:00,83.3,69.6,30.07,East,97,2.4,3.4,63,0.00,,,0.00,WUHU216HW,2013-07-05 16:32:00,
2013-07-05 12:37:00,84.1,71.5,30.07,NNE,14,1.2,1.6,65,0.00,,,0.00,WUHU216HW,2013-07-05 16:37:00,
2013-07-05 12:42:00,84.2,71.0,30.07,ESE,108,1.4,2.2,64,0.00,,,0.00,WUHU216HW,2013-07-05 16:42:00,
2013-07-05 12:47:00,84.2,71.5,30.07,NE,40,1.3,1.6,65,0.00,,,0.00,WUHU216HW,2013-07-05 16:47:00,
2013-07-05 12:52:00,84.4,70.7,30.07,ESE,109,2.1,2.5,63,0.00,,,0.00,WUHU216HW,2013-07-05 16:52:00,
2013-07-05 12:57:00,85.0,72.8,30.07,SE,126,1.0,1.3,66,0.00,,,0.00,WUHU216HW,2013-07-05 16:57:00,
2013-07-05 13:02:00,86.0,74.8,30.07,South,170,0.9,1.1,69,0.00,,,0.00,WUHU216HW,2013-07-05 17:02:00,
2013-07-05 13:07:00,86.6,74.4,30.07,SW,225,0.3,0.7,66,0.00,,,0.00,WUHU216HW,2013-07-05 17:07:00,
2013-07-05 13:12:00,85.9,73.7,30.07,SW,230,1.1,1.6,66,0.00,,,0.00,WUHU216HW,2013-07-05 17:12:00,
2013-07-05 13:17:00,85.1,73.4,30.07,SW,223,3.4,4.5,68,0.00,,,0.00,WUHU216HW,2013-07-05 17:17:00,
2013-07-05 13:22:00,85.7,74.5,30.07,SE,130,2.0,2.5,69,0.00,,,0.00,WUHU216HW,2013-07-05 17:22:00,
2013-07-05 13:27:00,86.2,74.5,30.07,SE,145,0.6,1.1,68,0.00,,,0.00,WUHU216HW,2013-07-05 17:27:00,
2013-07-05 13:32:00,86.8,74.5,30.07,WNW,282,1.0,1.3,66,0.00,,,0.00,WUHU216HW,2013-07-05 17:32:00,
2013-07-05 13:37:00,85.9,72.6,30.07,NW,315,1.0,1.3,64,0.00,,,0.00,WUHU216HW,2013-07-05 17:37:00,
2013-07-05 13:42:00,85.1,71.4,30.07,NNE,17,0.7,1.1,63,0.00,,,0.00,WUHU216HW,2013-07-05 17:42:00,
2013-07-05 13:47:00,86.0,74.3,30.07,West,262,0.7,0.9,68,0.00,,,0.00,WUHU216HW,2013-07-05 17:47:00,
2013-07-05 13:52:00,86.9,74.6,30.07,WNW,301,1.8,2.0,66,0.00,,,0.00,WUHU216HW,2013-07-05 17:52:00,
2013-07-05 13:57:00,87.5,74.7,30.07,West,269,1.9,2.5,65,0.00,,,0.00,WUHU216HW,2013-07-05 17:57:00,
2013-07-05 14:02:00,87.8,75.0,30.07,WSW,239,2.4,3.1,65,0.00,,,0.00,WUHU216HW,2013-07-05 18:02:00,
2013-07-05 14:07:00,88.2,75.4,30.07,South,182,3.4,3.8,65,0.00,,,0.00,WUHU216HW,2013-07-05 18:07:00,
2013-07-05 14:12:00,88.6,75.7,30.07,SSW,207,0.9,0.9,65,0.00,,,0.00,WUHU216HW,2013-07-05 18:12:00,
2013-07-05 14:17:00,88.9,75.0,30.07,WSW,255,1.2,1.8,63,0.00,,,0.00,WUHU216HW,2013-07-05 18:17:00,
2013-07-05 14:22:00,88.9,74.4,30.07,West,279,0.3,0.9,62,0.00,,,0.00,WUHU216HW,2013-07-05 18:22:00,
2013-07-05 14:27:00,89.5,75.0,30.06,West,270,0.8,1.8,62,0.00,,,0.00,WUHU216HW,2013-07-05 18:27:00,
2013-07-05 14:32:00,89.3,75.3,30.06,SSW,207,1.3,1.8,63,0.00,,,0.00,WUHU216HW,2013-07-05 18:32:00,
2013-07-05 14:37:00,89.3,75.3,30.06,SSE,155,0.6,1.3,63,0.00,,,0.00,WUHU216HW,2013-07-05 18:37:00,
2013-07-05 14:42:00,88.9,72.7,30.06,ESE,106,2.5,3.1,58,0.00,,,0.00,WUHU216HW,2013-07-05 18:42:00,
2013-07-05 14:47:00,87.8,72.8,30.06,SSW,199,2.1,3.8,61,0.00,,,0.00,WUHU216HW,2013-07-05 18:47:00,
2013-07-05 14:52:00,88.0,74.6,30.06,SW,225,2.3,2.5,64,0.00,,,0.00,WUHU216HW,2013-07-05 18:52:00,
2013-07-05 14:58:00,88.6,74.7,30.06,SW,228,4.0,4.5,63,0.00,,,0.00,WUHU216HW,2013-07-05 18:58:00,
2013-07-05 15:03:00,88.9,74.4,30.06,WSW,257,2.5,2.9,62,0.00,,,0.00,WUHU216HW,2013-07-05 19:03:00,
2013-07-05 15:08:00,89.5,75.0,30.06,West,270,0.8,1.8,62,0.00,,,0.00,WUHU216HW,2013-07-05 19:08:00,
2013-07-05 15:13:00,89.1,74.0,30.06,SSW,203,1.3,2.5,61,0.00,,,0.00,WUHU216HW,2013-07-05 19:13:00,
2013-07-05 15:18:00,89.3,73.1,30.05,North,4,0.9,1.1,58,0.00,,,0.00,WUHU216HW,2013-07-05 19:18:00,
2013-07-05 15:23:00,88.7,72.5,30.05,ENE,59,0.9,1.1,58,0.00,,,0.00,WUHU216HW,2013-07-05 19:23:00,
2013-07-05 15:28:00,88.6,73.0,30.05,SSE,147,1.6,2.2,60,0.00,,,0.00,WUHU216HW,2013-07-05 19:28:00,
2013-07-05 15:33:00,88.6,73.6,30.05,West,279,2.8,3.8,61,0.00,,,0.00,WUHU216HW,2013-07-05 19:33:00,
2013-07-05 15:38:00,88.7,73.7,30.05,SW,233,2.7,2.9,61,0.00,,,0.00,WUHU216HW,2013-07-05 19:38:00,
2013-07-05 15:43:00,88.7,74.2,30.05,SW,214,0.9,1.3,62,0.00,,,0.00,WUHU216HW,2013-07-05 19:43:00,
2013-07-05 15:48:00,89.3,74.2,30.05,SW,221,1.8,4.0,61,0.00,,,0.00,WUHU216HW,2013-07-05 19:48:00,
2013-07-05 15:53:00,90.0,75.5,30.05,SW,216,1.3,2.5,62,0.00,,,0.00,WUHU216HW,2013-07-05 19:53:00,
2013-07-05 15:54:00,90.0,75.5,30.05,SW,225,2.4,2.5,62,0.00,,,0.00,WUHU216HW,2013-07-05 19:54:00,
2013-07-05 15:59:00,90.0,74.3,30.05,ESE,119,2.2,2.5,60,0.00,,,0.00,WUHU216HW,2013-07-05 19:59:00,
2013-07-05 16:04:00,90.0,74.3,30.05,SSE,157,0.9,1.1,60,0.00,,,0.00,WUHU216HW,2013-07-05 20:04:00,
2013-07-05 16:09:00,90.0,74.3,30.04,ESE,118,1.0,1.8,60,0.00,,,0.00,WUHU216HW,2013-07-05 20:09:00,
2013-07-05 16:10:00,90.0,74.9,30.04,SSW,195,1.2,1.8,61,0.00,,,0.00,WUHU216HW,2013-07-05 20:10:00,
2013-07-05 16:15:00,89.8,74.7,30.04,West,259,1.4,1.6,61,0.00,,,0.00,WUHU216HW,2013-07-05 20:15:00,
2013-07-05 16:20:00,89.3,73.1,30.04,ESE,119,2.2,2.5,58,0.00,,,0.00,WUHU216HW,2013-07-05 20:20:00,
2013-07-05 16:25:00,88.6,73.6,30.04,SSE,158,0.8,1.1,61,0.00,,,0.00,WUHU216HW,2013-07-05 20:25:00,
2013-07-05 16:30:00,88.4,72.8,30.04,SE,146,0.9,1.3,60,0.00,,,0.00,WUHU216HW,2013-07-05 20:30:00,
2013-07-05 16:35:00,88.6,73.6,30.03,SE,133,0.9,0.9,61,0.00,,,0.00,WUHU216HW,2013-07-05 20:35:00,
2013-07-05 16:40:00,89.1,74.0,30.04,SW,219,2.0,2.7,61,0.00,,,0.00,WUHU216HW,2013-07-05 20:40:00,
2013-07-05 16:45:00,89.6,73.4,30.04,NW,315,2.2,3.1,58,0.00,,,0.00,WUHU216HW,2013-07-05 20:45:00,
2013-07-05 16:50:00,89.5,72.7,30.03,WSW,241,1.1,1.6,57,0.00,,,0.00,WUHU216HW,2013-07-05 20:50:00,
2013-07-05 16:55:00,89.3,74.2,30.03,WSW,248,0.7,1.1,61,0.00,,,0.00,WUHU216HW,2013-07-05 20:55:00,
2013-07-05 17:00:00,89.6,74.5,30.03,SSW,195,2.4,2.7,61,0.00,,,0.00,WUHU216HW,2013-07-05 21:00:00,
2013-07-05 17:05:00,89.3,73.7,30.03,SSW,213,2.3,2.9,60,0.00,,,0.00,WUHU216HW,2013-07-05 21:05:00,
2013-07-05 17:11:00,88.9,73.8,30.03,SW,236,1.1,1.6,61,0.00,,,0.00,WUHU216HW,2013-07-05 21:11:00,
2013-07-05 17:16:00,88.7,72.5,30.03,South,183,0.6,1.6,58,0.00,,,0.00,WUHU216HW,2013-07-05 21:16:00,
2013-07-05 17:21:00,88.2,72.6,30.03,WSW,244,2.5,3.4,60,0.00,,,0.00,WUHU216HW,2013-07-05 21:21:00,
2013-07-05 17:26:00,87.8,72.2,30.03,West,259,1.0,1.3,60,0.00,,,0.00,WUHU216HW,2013-07-05 21:26:00,
2013-07-05 17:31:00,87.7,72.7,30.02,WSW,248,0.1,0.2,61,0.00,,,0.00,WUHU216HW,2013-07-05 21:31:00,
2013-07-05 17:36:00,87.8,73.4,30.03,South,178,0.5,1.1,62,0.00,,,0.00,WUHU216HW,2013-07-05 21:36:00,
2013-07-05 17:41:00,88.2,70.8,30.03,East,90,3.9,4.3,56,0.00,,,0.00,WUHU216HW,2013-07-05 21:41:00,
2013-07-05 17:46:00,88.2,72.6,30.03,South,185,1.9,2.7,60,0.00,,,0.00,WUHU216HW,2013-07-05 21:46:00,
2013-07-05 17:51:00,88.4,73.4,30.03,WSW,241,0.9,1.1,61,0.00,,,0.00,WUHU216HW,2013-07-05 21:51:00,
2013-07-05 17:56:00,88.6,73.0,30.02,NNE,23,0.1,0.4,60,0.00,,,0.00,WUHU216HW,2013-07-05 21:56:00,
2013-07-05 18:01:00,87.8,71.1,30.02,NNW,338,0.2,0.4,57,0.00,,,0.00,WUHU216HW,2013-07-05 22:01:00,
2013-07-05 18:06:00,87.5,73.1,30.02,SW,233,1.4,1.8,62,0.00,,,0.00,WUHU216HW,2013-07-05 22:06:00,
2013-07-05 18:11:00,87.1,71.0,30.02,SE,135,1.2,1.6,58,0.00,,,0.00,WUHU216HW,2013-07-05 22:11:00,
2013-07-05 18:16:00,86.6,72.2,30.02,SW,233,0.9,2.0,62,0.00,,,0.00,WUHU216HW,2013-07-05 22:16:00,
2013-07-05 18:21:00,86.9,73.1,30.02,SSW,208,0.3,0.9,63,0.00,,,0.00,WUHU216HW,2013-07-05 22:21:00,
2013-07-05 18:26:00,86.8,71.9,30.02,ESE,113,1.7,1.8,61,0.00,,,0.00,WUHU216HW,2013-07-05 22:26:00,
2013-07-05 18:31:00,86.4,72.0,30.02,South,180,0.1,0.2,62,0.00,,,0.00,WUHU216HW,2013-07-05 22:31:00,
2013-07-05 18:36:00,86.0,71.1,30.02,SW,219,0.6,1.1,61,0.00,,,0.00,WUHU216HW,2013-07-05 22:36:00,
2013-07-05 18:41:00,85.3,71.0,30.02,South,172,0.4,0.4,62,0.00,,,0.00,WUHU216HW,2013-07-05 22:41:00,
2013-07-05 18:46:00,85.0,71.3,30.02,WSW,248,0.3,0.7,63,0.00,,,0.00,WUHU216HW,2013-07-05 22:46:00,
2013-07-05 18:51:00,84.2,70.0,30.02,West,264,0.3,0.9,62,0.00,,,0.00,WUHU216HW,2013-07-05 22:51:00,
2013-07-05 18:56:00,83.9,69.1,30.02,SSW,200,0.8,0.9,61,0.00,,,0.00,WUHU216HW,2013-07-05 22:56:00,
2013-07-05 19:01:00,83.3,68.6,30.02,SSE,155,0.7,1.1,61,0.00,,,0.00,WUHU216HW,2013-07-05 23:01:00,
2013-07-05 19:06:00,83.2,68.5,30.02,West,270,1.0,1.1,61,0.00,,,0.00,WUHU216HW,2013-07-05 23:06:00,
2013-07-05 19:11:00,82.6,68.4,30.01,WSW,245,0.8,1.1,62,0.00,,,0.00,WUHU216HW,2013-07-05 23:11:00,
2013-07-05 19:16:00,82.4,68.8,30.01,WSW,248,0.9,1.8,63,0.00,,,0.00,WUHU216HW,2013-07-05 23:16:00,
2013-07-05 19:21:00,82.4,69.3,30.02,WSW,252,1.1,2.0,64,0.00,,,0.00,WUHU216HW,2013-07-05 23:21:00,
2013-07-05 19:26:00,82.1,68.0,30.01,North,0,0.0,0.0,62,0.00,,,0.00,WUHU216HW,2013-07-05 23:26:00,
2013-07-05 19:31:00,81.9,68.8,30.01,SSW,203,0.3,0.4,64,0.00,,,0.00,WUHU216HW,2013-07-05 23:31:00,
2013-07-05 19:36:00,81.7,69.2,30.01,North,0,0.0,0.0,65,0.00,,,0.00,WUHU216HW,2013-07-05 23:36:00,
2013-07-05 19:41:00,81.5,70.0,30.01,SSW,203,0.4,0.9,68,0.00,,,0.00,WUHU216HW,2013-07-05 23:41:00,
2013-07-05 19:46:00,81.5,70.5,30.01,SW,225,0.2,0.4,69,0.00,,,0.00,WUHU216HW,2013-07-05 23:46:00,
2013-07-05 19:48:00,81.4,69.9,30.01,North,0,0.0,0.0,68,0.00,,,0.00,WUHU216HW,2013-07-05 23:48:00,
2013-07-05 19:54:00,81.2,70.6,30.02,North,0,0.0,0.0,70,0.00,,,0.00,WUHU216HW,2013-07-05 23:54:00,
2013-07-05 19:59:00,81.2,71.1,30.01,North,0,0.0,0.0,71,0.00,,,0.00,WUHU216HW,2013-07-05 23:59:00,
2013-07-05 20:04:00,80.8,71.2,30.02,North,0,0.0,0.0,72,0.00,,,0.00,WUHU216HW,2013-07-06 00:04:00,
2013-07-05 20:09:00,80.6,71.5,30.02,SW,225,0.8,1.1,73,0.00,,,0.00,WUHU216HW,2013-07-06 00:09:00,
2013-07-05 20:14:00,80.1,70.5,30.02,SW,225,0.4,0.7,72,0.00,,,0.00,WUHU216HW,2013-07-06 00:14:00,
2013-07-05 20:19:00,79.7,70.1,30.02,South,180,0.1,0.7,72,0.00,,,0.00,WUHU216HW,2013-07-06 00:19:00,
2013-07-05 20:24:00,79.2,70.1,30.02,North,0,0.0,0.0,73,0.00,,,0.00,WUHU216HW,2013-07-06 00:24:00,
2013-07-05 20:29:00,78.8,70.2,30.02,North,0,0.0,0.0,74,0.00,,,0.00,WUHU216HW,2013-07-06 00:29:00,
2013-07-05 20:34:00,78.3,69.7,30.02,North,0,0.0,0.0,74,0.00,,,0.00,WUHU216HW,2013-07-06 00:34:00,
2013-07-05 20:39:00,78.1,69.9,30.02,SSW,203,0.3,0.7,76,0.00,,,0.00,WUHU216HW,2013-07-06 00:39:00,
2013-07-05 20:44:00,77.8,69.6,30.02,North,0,0.0,0.0,76,0.00,,,0.00,WUHU216HW,2013-07-06 00:44:00,
2013-07-05 20:49:00,77.4,69.2,30.03,West,270,0.0,0.2,76,0.00,,,0.00,WUHU216HW,2013-07-06 00:49:00,
2013-07-05 20:54:00,77.0,69.3,30.02,North,0,0.0,0.0,77,0.00,,,0.00,WUHU216HW,2013-07-06 00:54:00,
2013-07-05 20:59:00,76.3,68.6,30.02,SSW,203,0.0,0.2,77,0.00,,,0.00,WUHU216HW,2013-07-06 00:59:00,
2013-07-05 21:04:00,76.0,68.7,30.02,SW,225,0.2,0.7,78,0.00,,,0.00,WUHU216HW,2013-07-06 01:04:00,
2013-07-05 21:09:00,75.4,68.5,30.02,North,0,0.0,0.0,79,0.00,,,0.00,WUHU216HW,2013-07-06 01:09:00,
2013-07-05 21:14:00,74.9,68.1,30.02,North,0,0.0,0.0,79,0.00,,,0.00,WUHU216HW,2013-07-06 01:14:00,
2013-07-05 21:19:00,74.5,68.1,30.03,North,0,0.0,0.0,80,0.00,,,0.00,WUHU216HW,2013-07-06 01:19:00,
2013-07-05 21:24:00,74.3,67.9,30.03,North,0,0.0,0.0,80,0.00,,,0.00,WUHU216HW,2013-07-06 01:24:00,
2013-07-05 21:29:00,74.0,68.0,30.03,North,0,0.0,0.0,81,0.00,,,0.00,WUHU216HW,2013-07-06 01:29:00,
2013-07-05 21:34:00,73.6,67.6,30.03,North,0,0.0,0.0,81,0.00,,,0.00,WUHU216HW,2013-07-06 01:34:00,
2013-07-05 21:39:00,73.3,67.7,30.03,SE,135,0.5,0.7,82,0.00,,,0.00,WUHU216HW,2013-07-06 01:39:00,
2013-07-05 21:44:00,72.9,67.7,30.04,SE,135,0.3,0.4,84,0.00,,,0.00,WUHU216HW,2013-07-06 01:44:00,
2013-07-05 21:49:00,72.7,67.9,30.04,South,177,1.2,2.0,85,0.00,,,0.00,WUHU216HW,2013-07-06 01:49:00,
2013-07-05 21:54:00,72.5,67.7,30.04,SE,130,0.6,0.9,85,0.00,,,0.00,WUHU216HW,2013-07-06 01:54:00,
2013-07-05 21:59:00,72.7,68.3,30.05,SW,225,0.2,1.1,86,0.00,,,0.00,WUHU216HW,2013-07-06 01:59:00,
2013-07-05 22:04:00,72.9,68.4,30.05,WSW,255,0.7,0.9,86,0.00,,,0.00,WUHU216HW,2013-07-06 02:04:00,
2013-07-05 22:10:00,72.9,68.4,30.05,South,180,0.2,0.7,86,0.00,,,0.00,WUHU216HW,2013-07-06 02:10:00,
2013-07-05 22:15:00,72.9,68.4,30.05,North,0,0.0,0.0,86,0.00,,,0.00,WUHU216HW,2013-07-06 02:15:00,
2013-07-05 22:20:00,72.9,68.4,30.05,SE,135,0.5,0.7,86,0.00,,,0.00,WUHU216HW,2013-07-06 02:20:00,
2013-07-05 22:25:00,72.7,68.3,30.05,ENE,68,0.1,0.4,86,0.00,,,0.00,WUHU216HW,2013-07-06 02:25:00,
2013-07-05 22:30:00,72.5,68.4,30.05,SSE,152,0.3,0.7,87,0.00,,,0.00,WUHU216HW,2013-07-06 02:30:00,
2013-07-05 22:35:00,72.4,68.3,30.05,SSE,158,0.3,0.4,87,0.00,,,0.00,WUHU216HW,2013-07-06 02:35:00,
2013-07-05 22:40:00,72.2,67.8,30.05,North,0,0.0,0.0,86,0.00,,,0.00,WUHU216HW,2013-07-06 02:40:00,
2013-07-05 22:45:00,72.0,67.9,30.05,North,0,0.0,0.0,87,0.00,,,0.00,WUHU216HW,2013-07-06 02:45:00,
2013-07-05 22:50:00,71.6,67.5,30.05,SSW,203,0.1,0.2,87,0.00,,,0.00,WUHU216HW,2013-07-06 02:50:00,
2013-07-05 22:55:00,71.6,67.9,30.05,ESE,113,0.5,0.7,88,0.00,,,0.00,WUHU216HW,2013-07-06 02:55:00,
2013-07-05 23:00:00,71.5,67.8,30.05,North,0,0.0,0.0,88,0.00,,,0.00,WUHU216HW,2013-07-06 03:00:00,
2013-07-05 23:05:00,71.3,67.6,30.05,North,0,0.0,0.0,88,0.00,,,0.00,WUHU216HW,2013-07-06 03:05:00,
2013-07-05 23:10:00,70.9,67.6,30.05,ESE,113,0.2,0.4,89,0.00,,,0.00,WUHU216HW,2013-07-06 03:10:00,
2013-07-05 23:15:00,70.9,67.6,30.05,North,0,0.0,0.0,89,0.00,,,0.00,WUHU216HW,2013-07-06 03:15:00,
2013-07-05 23:20:00,70.6,67.3,30.05,North,0,0.0,0.0,89,0.00,,,0.00,WUHU216HW,2013-07-06 03:20:00,
2013-07-05 23:25:00,70.4,67.5,30.05,North,0,0.0,0.0,91,0.00,,,0.00,WUHU216HW,2013-07-06 03:25:00,
2013-07-05 23:30:00,70.0,67.1,30.05,North,0,0.0,0.0,91,0.00,,,0.00,WUHU216HW,2013-07-06 03:30:00,
2013-07-05 23:35:00,69.8,67.2,30.05,North,0,0.0,0.0,92,0.00,,,0.00,WUHU216HW,2013-07-06 03:35:00,
2013-07-05 23:40:00,69.8,67.2,30.05,North,0,0.0,0.0,92,0.00,,,0.00,WUHU216HW,2013-07-06 03:40:00,
2013-07-05 23:45:00,69.7,67.1,30.05,North,0,0.0,0.0,92,0.00,,,0.00,WUHU216HW,2013-07-06 03:45:00,
2013-07-05 23:50:00,69.5,66.9,30.05,North,0,0.0,0.0,92,0.00,,,0.00,WUHU216HW,2013-07-06 03:50:00,
2013-07-05 23:55:00,69.1,66.5,30.05,North,0,0.0,0.0,92,0.00,,,0.00,WUHU216HW,2013-07-06 03:55:00,